»·PEaware :: N151TR KSEZ-1G4

N151TR :: KSEZ-1G4

FLIGHT INFORMATION

Flight Status: Arrived
Operator: Privately registered:
United States
More flights under this callsign
Pilot: Drew L. (13237)
Aircraft: CESSNA 340
(C340)
More flights by this aircraft type
Origin: KSEZ Sedona
United States
Destination: 1G4 Grand Canyon West
United States
More flights between these airports :: More routes between these airports
Route: +OATES1 OATES FLG V291 PGS COWBY 1G4
File this flight plan on PilotEdge
Remarks: ROGER
Altitude:
(Current/Filed)
20,000ft
Speed:
(Current/Filed)
0kts
Departed: 13-Oct-18 05:04 PM
Arrived: 13-Oct-18 05:59 PM
Distance/Time
Traveled:
120nm/0:55
Distance/Time
To Go:
Arrived

Flight Plot

Page will automatically refresh every two minutes.

Flight plan parsing failed; only flown route is shown


Map Options




Map Legend


Flown Route
Filed Route
Departure Airport
Arrival Airport
Navaid (VOR, NDB)
Fix

Horizontal Profiles

Position Reports

Time Latitude Longitude Heading Altitude Ground
Speed
13-Oct-18 16:58 34.848671 -111.792251 135 4756ft 0kts
13-Oct-18 16:59 34.848671 -111.792251 135 4756ft 0kts
13-Oct-18 17:00 34.848671 -111.792251 135 4756ft 0kts
13-Oct-18 17:01 34.848671 -111.792251 135 4756ft 0kts
13-Oct-18 17:02 34.848962 -111.791006 133 4756ft 16kts
13-Oct-18 17:03 34.851750 -111.785745 46 4756ft 28kts
13-Oct-18 17:04 34.853644 -111.783060 104 4756ft 0kts
13-Oct-18 17:05 34.853644 -111.783058 103 4756ft 0kts
13-Oct-18 17:06 34.851341 -111.784965 225 4757ft 77kts
13-Oct-18 17:07 34.827317 -111.814460 220 5342ft 150kts
13-Oct-18 17:08 34.795626 -111.851764 220 5834ft 175kts
13-Oct-18 17:09 34.762456 -111.889094 218 7008ft 155kts
13-Oct-18 17:10 34.767615 -111.927246 354 8007ft 173kts
13-Oct-18 17:11 34.811843 -111.928133 358 9435ft 156kts
13-Oct-18 17:12 34.854979 -111.927154 358 10754ft 155kts
13-Oct-18 17:13 34.897292 -111.928877 351 12009ft 152kts
13-Oct-18 17:14 34.938839 -111.931379 351 13110ft 147kts
13-Oct-18 17:15 34.978932 -111.933310 351 14055ft 146kts
13-Oct-18 17:16 35.017785 -111.934984 351 15137ft 137kts
13-Oct-18 17:17 35.055535 -111.936670 351 16126ft 136kts
13-Oct-18 17:18 35.086099 -111.937925 351 16891ft 136kts
13-Oct-18 17:19 35.123749 -111.939189 351 17802ft 137kts
13-Oct-18 17:20 35.162052 -111.940169 351 18697ft 138kts
13-Oct-18 17:21 35.200333 -111.940871 351 19566ft 140kts
13-Oct-18 17:22 35.241264 -111.941654 351 20023ft 168kts
13-Oct-18 17:23 35.255754 -111.987514 267 20006ft 172kts
13-Oct-18 17:24 35.255328 -112.047591 267 19990ft 180kts
13-Oct-18 17:25 35.254501 -112.109145 267 19981ft 181kts
13-Oct-18 17:26 35.279599 -112.163482 296 19980ft 187kts
13-Oct-18 17:27 35.305059 -112.218508 295 19980ft 186kts
13-Oct-18 17:28 35.329023 -112.274606 292 19981ft 187kts
13-Oct-18 17:29 35.336901 -112.335212 265 19978ft 182kts
13-Oct-18 17:30 35.339594 -112.393422 276 19976ft 163kts
13-Oct-18 17:31 35.348408 -112.446788 284 19984ft 161kts
13-Oct-18 17:32 35.362572 -112.501827 284 19982ft 176kts
13-Oct-18 17:33 35.378733 -112.565355 285 19983ft 172kts
13-Oct-18 17:34 35.391054 -112.612715 284 19981ft 178kts
13-Oct-18 17:35 35.405767 -112.670431 284 19983ft 181kts
13-Oct-18 17:36 35.420251 -112.727393 284 19983ft 183kts
13-Oct-18 17:37 35.435371 -112.786986 284 19982ft 183kts
13-Oct-18 17:38 35.450531 -112.846923 283 19981ft 185kts
13-Oct-18 17:39 35.465650 -112.906811 284 19982ft 188kts
13-Oct-18 17:40 35.481313 -112.968643 285 19970ft 184kts
13-Oct-18 17:41 35.496715 -113.029754 285 18943ft 198kts
13-Oct-18 17:42 35.518416 -113.115291 286 15707ft 237kts
13-Oct-18 17:43 35.534273 -113.179269 286 13455ft 235kts
13-Oct-18 17:44 35.552894 -113.254320 286 10840ft 228kts
13-Oct-18 17:45 35.570436 -113.325264 285 9150ft 191kts
13-Oct-18 17:46 35.583831 -113.380310 285 8956ft 150kts
13-Oct-18 17:47 35.596188 -113.429766 285 8965ft 156kts
13-Oct-18 17:48 35.609799 -113.484055 286 8282ft 195kts
13-Oct-18 17:49 35.624580 -113.542241 296 8309ft 170kts
13-Oct-18 17:50 35.657149 -113.583387 314 8317ft 166kts
13-Oct-18 17:51 35.689808 -113.622326 314 8317ft 165kts
13-Oct-18 17:52 35.721965 -113.660781 314 8317ft 165kts
13-Oct-18 17:53 35.754769 -113.700066 314 8317ft 165kts
13-Oct-18 17:54 35.787100 -113.738821 314 8317ft 165kts
13-Oct-18 17:55 35.820055 -113.778374 314 8317ft 165kts
13-Oct-18 17:56 35.852959 -113.817916 314 8318ft 165kts
13-Oct-18 17:57 35.885942 -113.857596 314 8318ft 165kts
13-Oct-18 17:58 35.922606 -113.888880 1 8318ft 166kts
13-Oct-18 17:59 35.947048 -113.858678 62 6521ft 126kts
13-Oct-18 18:00 35.965809 -113.823327 40 5245ft 108kts
13-Oct-18 18:01 35.988807 -113.816697 296 4821ft 11kts

Navigation Log

Ident Type
Flight plan parsing failed, navigation log unavailable